Time;durP1;ratioP1;P1;durP2;ratioP2;P2;SDS_P1;SDS_P2;PMS_P1;PMS_P2;Temp;Humidity;BMP_temperature;BMP_pressure;BME280_temperature;BME280_humidity;BME280_pressure;Samples;Min_cycle;Max_cycle;Signal;HPM_P1;HPM_P2
2024/02/03 00:01:17;;;;;;;27.50;8.10;;;;;;;12.55;54.56;98731.15;67953;1275;1016410;-71
2024/02/03 00:04:31;;;;;;;25.80;8.00;;;;;;;12.52;54.84;98717.19;67994;1253;1016450;-71
2024/02/03 00:07:34;;;;;;;26.80;7.20;;;;;;;12.53;55.10;98706.92;67961;1275;1016773;-70
2024/02/03 00:10:38;;;;;;;25.20;8.00;;;;;;;12.51;55.22;98719.50;67917;1275;1018088;-70
2024/02/03 00:13:40;;;;;;;25.10;6.90;;;;;;;12.37;56.07;98707.20;67961;1275;1016539;-71
2024/02/03 00:16:43;;;;;;;25.20;7.50;;;;;;;12.39;56.35;98703.52;67950;1275;1016527;-70
2024/02/03 00:19:45;;;;;;;26.30;7.30;;;;;;;12.53;56.02;98707.10;67975;1275;1016597;-71
2024/02/03 00:22:51;;;;;;;26.30;7.70;;;;;;;12.42;56.73;98719.81;67981;1275;1016481;-71
2024/02/03 00:25:53;;;;;;;24.70;7.50;;;;;;;12.44;56.84;98725.30;68001;1275;1016009;-71
2024/02/03 00:28:56;;;;;;;26.60;7.40;;;;;;;12.36;57.51;98728.44;67975;1275;1016271;-70
2024/02/03 00:31:58;;;;;;;24.10;7.10;;;;;;;12.25;58.26;98730.10;67990;1275;1016282;-71
2024/02/03 00:35:01;;;;;;;25.50;6.40;;;;;;;12.19;59.17;98726.78;67978;1275;1016471;-71
2024/02/03 00:38:03;;;;;;;26.30;8.80;;;;;;;12.20;59.61;98728.89;68014;1275;1016355;-71
2024/02/03 00:41:06;;;;;;;24.10;7.30;;;;;;;12.21;59.57;98721.23;67963;1275;1016461;-69
2024/02/03 00:44:09;;;;;;;31.20;9.60;;;;;;;12.21;60.11;98705.33;67988;1275;1016394;-70
2024/02/03 00:47:11;;;;;;;27.80;8.60;;;;;;;12.27;60.07;98702.08;67997;1275;1016508;-70
2024/02/03 00:50:15;;;;;;;27.90;7.80;;;;;;;12.28;60.20;98697.64;67970;1275;1016213;-69
2024/02/03 00:53:18;;;;;;;25.30;7.60;;;;;;;12.23;60.80;98696.74;68000;1275;1016305;-71
2024/02/03 00:56:21;;;;;;;27.00;8.30;;;;;;;12.25;61.09;98692.02;68033;1275;1017027;-71
2024/02/03 00:59:23;;;;;;;29.10;8.30;;;;;;;12.19;61.63;98691.42;68011;1275;1016296;-71
2024/02/03 01:02:26;;;;;;;29.70;8.40;;;;;;;12.21;61.84;98683.24;67962;1275;1016492;-71
2024/02/03 01:05:28;;;;;;;22.60;7.10;;;;;;;12.05;62.79;98687.48;67983;1275;1016962;-71
2024/02/03 01:08:31;;;;;;;26.70;8.30;;;;;;;12.01;63.55;98693.02;68024;1275;1016531;-71
2024/02/03 01:11:35;;;;;;;24.00;7.90;;;;;;;12.06;63.36;98682.83;67979;1275;1017466;-71
2024/02/03 01:14:37;;;;;;;26.00;8.90;;;;;;;12.13;63.21;98680.09;68019;1275;1016494;-70
2024/02/03 01:17:40;;;;;;;24.20;7.80;;;;;;;12.04;63.90;98673.20;67999;1275;1016911;-71
2024/02/03 01:20:42;;;;;;;28.10;7.70;;;;;;;12.15;64.03;98666.27;67970;1275;1016452;-71
2024/02/03 01:23:45;;;;;;;25.20;7.60;;;;;;;12.10;64.35;98672.58;68045;1275;1016508;-70
2024/02/03 01:26:47;;;;;;;25.20;7.60;;;;;;;12.14;64.19;98658.94;67988;1254;1016479;-71
2024/02/03 01:29:50;;;;;;;27.70;8.50;;;;;;;12.18;64.72;98669.79;67974;1275;1016326;-71
2024/02/03 01:32:52;;;;;;;26.70;7.70;;;;;;;12.17;64.97;98677.34;67986;1275;1016559;-72
2024/02/03 01:35:55;;;;;;;23.80;7.60;;;;;;;12.01;66.15;98663.91;68012;1275;1016108;-71
2024/02/03 01:38:57;;;;;;;25.40;8.10;;;;;;;11.92;66.79;98657.66;68031;1275;1018072;-71
2024/02/03 01:42:00;;;;;;;22.80;7.50;;;;;;;11.86;67.65;98661.77;67977;1275;1016420;-71
2024/02/03 01:45:03;;;;;;;29.30;8.00;;;;;;;11.82;68.23;98660.79;67979;1275;1016047;-71
2024/02/03 01:48:05;;;;;;;25.50;8.70;;;;;;;11.88;68.16;98652.19;68017;1275;1015966;-70
2024/02/03 01:51:08;;;;;;;24.60;7.30;;;;;;;12.08;66.85;98651.19;67988;1275;1016355;-71
2024/02/03 01:54:10;;;;;;;24.70;8.20;;;;;;;12.02;67.51;98650.67;67982;1275;1016565;-67
2024/02/03 01:57:13;;;;;;;24.40;8.10;;;;;;;12.06;67.60;98667.77;67995;1275;1016423;-71
2024/02/03 02:00:15;;;;;;;25.00;7.60;;;;;;;11.94;68.55;98672.25;68012;1275;1016023;-70
2024/02/03 02:03:18;;;;;;;27.00;8.40;;;;;;;11.62;71.27;98662.73;68042;1275;1016420;-71
2024/02/03 02:06:22;;;;;;;26.50;8.30;;;;;;;11.78;70.46;98663.00;68005;1275;1016484;-70
2024/02/03 02:09:24;;;;;;;27.90;8.80;;;;;;;12.15;68.30;98663.33;67982;1275;1016501;-69
2024/02/03 02:12:27;;;;;;;24.00;8.30;;;;;;;12.14;68.45;98650.23;68043;1275;1016385;-70
2024/02/03 02:15:29;;;;;;;25.80;9.40;;;;;;;12.11;69.02;98647.11;68043;1275;1016567;-71
2024/02/03 02:18:32;;;;;;;24.50;8.30;;;;;;;12.17;68.96;98653.34;67985;1275;1015938;-71
2024/02/03 02:21:35;;;;;;;23.70;7.10;;;;;;;12.28;68.53;98644.87;68001;1275;1016127;-69
2024/02/03 02:24:38;;;;;;;24.70;8.70;;;;;;;12.08;70.17;98656.60;68042;1275;1016241;-70
2024/02/03 02:27:40;;;;;;;23.60;8.20;;;;;;;12.01;70.86;98650.42;67979;1266;1016188;-69
2024/02/03 02:30:44;;;;;;;26.30;8.90;;;;;;;12.02;71.33;98640.73;68039;1275;1016474;-68
2024/02/03 02:33:46;;;;;;;28.00;8.60;;;;;;;11.90;72.26;98640.64;68036;1275;1017635;-71
2024/02/03 02:36:49;;;;;;;28.40;8.80;;;;;;;11.95;72.19;98653.77;67968;1275;1016464;-70
2024/02/03 02:39:52;;;;;;;27.20;8.80;;;;;;;11.91;72.79;98652.13;67994;1275;1017038;-71
2024/02/03 02:42:54;;;;;;;28.30;10.30;;;;;;;12.04;72.37;98654.59;68036;1275;1016909;-65
2024/02/03 02:45:58;;;;;;;26.00;8.60;;;;;;;12.02;72.68;98647.70;68022;1275;1015978;-71
2024/02/03 02:49:01;;;;;;;26.70;9.00;;;;;;;12.06;73.01;98644.30;68047;1275;1016360;-71
2024/02/03 02:52:04;;;;;;;26.40;8.80;;;;;;;12.07;72.81;98631.25;67976;1275;1016437;-71
2024/02/03 02:55:06;;;;;;;26.60;8.70;;;;;;;12.23;72.14;98631.37;68041;1275;1016413;-71
2024/02/03 02:58:09;;;;;;;30.10;9.30;;;;;;;12.11;73.58;98639.55;68060;1275;1016332;-71
2024/02/03 03:01:11;;;;;;;27.70;9.20;;;;;;;12.06;74.43;98635.20;67986;1275;1016247;-71
2024/02/03 03:04:14;;;;;;;26.80;8.60;;;;;;;12.14;73.96;98631.45;67980;1275;1016413;-70
2024/02/03 03:07:17;;;;;;;29.50;9.00;;;;;;;12.12;74.42;98639.48;68049;1275;1016231;-71
2024/02/03 03:10:19;;;;;;;;;;;;;;;12.01;75.99;98646.61;68035;1275;1016061;-70
2024/02/03 03:13:22;;;;;;;23.80;7.70;;;;;;;11.96;77.03;98647.06;67974;1274;1016490;-70
2024/02/03 03:16:25;;;;;;;25.80;8.90;;;;;;;11.93;77.82;98642.39;68009;1275;1016168;-71
2024/02/03 03:19:28;;;;;;;25.60;8.70;;;;;;;12.03;77.26;98644.16;67987;1274;1016307;-71
2024/02/03 03:22:30;;;;;;;26.00;9.60;;;;;;;12.07;77.16;98645.78;68017;1275;1016441;-71
2024/02/03 03:25:33;;;;;;;26.00;10.50;;;;;;;12.13;76.84;98642.92;68024;1275;1018414;-70
2024/02/03 03:28:35;;;;;;;26.30;9.40;;;;;;;12.14;76.81;98640.05;67986;1275;1016422;-71
2024/02/03 03:31:38;;;;;;;25.80;8.60;;;;;;;12.13;77.42;98643.13;67965;1275;1016436;-71
2024/02/03 03:34:40;;;;;;;26.90;9.80;;;;;;;12.24;76.59;98645.13;68009;1275;1015953;-71
2024/02/03 03:37:43;;;;;;;27.70;10.50;;;;;;;12.20;77.14;98653.79;68044;1274;1016391;-71
2024/02/03 03:40:45;;;;;;;26.60;9.70;;;;;;;12.19;77.44;98650.58;68027;1275;1016134;-71
2024/02/03 03:43:49;;;;;;;26.50;9.60;;;;;;;12.13;78.03;98659.59;68006;1275;1015840;-71
2024/02/03 03:46:52;;;;;;;25.30;9.30;;;;;;;11.80;81.40;98668.13;67974;1275;1016079;-70
2024/02/03 03:49:54;;;;;;;25.70;9.20;;;;;;;11.92;81.22;98675.03;68044;1275;1016732;-71
2024/02/03 03:52:57;;;;;;;27.10;10.40;;;;;;;11.89;81.54;98669.98;68067;1275;1016993;-71
2024/02/03 03:55:59;;;;;;;28.50;10.00;;;;;;;11.81;83.19;98681.71;68001;1274;1016258;-71
2024/02/03 03:59:02;;;;;;;29.00;9.90;;;;;;;11.81;83.59;98681.20;67964;1275;1016475;-71
2024/02/03 04:02:04;;;;;;;24.10;9.80;;;;;;;11.72;85.07;98677.42;68020;1275;1018343;-71
2024/02/03 04:05:07;;;;;;;25.40;8.50;;;;;;;11.83;84.28;98671.46;68017;1275;1016456;-71
2024/02/03 04:08:10;;;;;;;26.00;9.80;;;;;;;11.80;85.32;98669.86;67945;1274;1016253;-71
2024/02/03 04:11:13;;;;;;;24.50;8.40;;;;;;;12.05;82.84;98670.65;68028;1275;1016360;-71
2024/02/03 04:14:15;;;;;;;24.90;8.20;;;;;;;12.02;83.46;98667.05;68033;1275;1018622;-70
2024/02/03 04:17:18;;;;;;;24.10;7.70;;;;;;;12.09;82.77;98657.05;67973;1275;1016109;-70
2024/02/03 04:20:21;;;;;;;25.30;8.50;;;;;;;12.09;82.92;98665.45;68059;1275;1016656;-71
2024/02/03 04:23:23;;;;;;;22.00;7.10;;;;;;;12.06;83.34;98663.40;68022;1275;1016395;-70
2024/02/03 04:26:26;;;;;;;21.40;6.30;;;;;;;12.02;84.45;98662.94;68006;1275;1016163;-70
2024/02/03 04:29:28;;;;;;;23.80;7.80;;;;;;;11.98;84.52;98657.95;68021;1275;1016382;-70
2024/02/03 04:32:32;;;;;;;21.50;6.80;;;;;;;11.95;85.17;98653.59;68020;1275;1016468;-70
2024/02/03 04:35:35;;;;;;;21.90;6.50;;;;;;;11.90;85.84;98658.01;68015;1275;1015823;-70
2024/02/03 04:38:37;;;;;;;21.90;5.90;;;;;;;12.10;84.20;98647.87;68034;1275;1016505;-70
2024/02/03 04:41:40;;;;;;;21.00;6.10;;;;;;;12.17;83.57;98651.62;68005;1275;1016451;-70
2024/02/03 04:44:42;;;;;;;21.50;6.30;;;;;;;12.18;83.30;98656.06;68022;1275;1018592;-70
2024/02/03 04:47:45;;;;;;;20.00;5.90;;;;;;;12.25;82.78;98636.27;68052;1275;1016483;-69
2024/02/03 04:50:47;;;;;;;17.80;5.10;;;;;;;12.27;82.59;98638.80;68032;1275;1017107;-67
2024/02/03 04:53:50;;;;;;;19.00;6.00;;;;;;;12.30;82.40;98656.48;68010;1275;1016421;-70
2024/02/03 04:56:52;;;;;;;20.70;5.50;;;;;;;12.39;81.09;98659.68;68000;1275;1016331;-70
2024/02/03 04:59:55;;;;;;;19.40;5.10;;;;;;;12.47;80.53;98664.55;68053;1275;1018064;-69
2024/02/03 05:02:57;;;;;;;19.10;5.30;;;;;;;12.47;80.56;98662.96;68006;1275;1016521;-69
2024/02/03 05:06:00;;;;;;;20.10;5.30;;;;;;;12.53;80.21;98666.23;67984;1275;1016468;-70
2024/02/03 05:09:03;;;;;;;18.20;5.20;;;;;;;12.53;79.91;98664.83;67996;1275;1016139;-71
2024/02/03 05:12:05;;;;;;;18.40;5.30;;;;;;;12.47;80.46;98672.12;68061;1275;1016440;-70
2024/02/03 05:15:08;;;;;;;19.90;6.10;;;;;;;12.45;80.85;98664.52;68082;1275;1015860;-70
2024/02/03 05:18:10;;;;;;;21.90;5.40;;;;;;;12.55;80.03;98655.20;67998;1275;1016479;-71
2024/02/03 05:21:14;;;;;;;19.70;5.20;;;;;;;12.55;80.15;98649.45;68023;1275;1016380;-71
2024/02/03 05:24:16;;;;;;;17.50;5.30;;;;;;;12.57;80.06;98644.75;67988;1275;1016053;-71
2024/02/03 05:27:19;;;;;;;19.80;5.70;;;;;;;12.62;79.55;98651.55;67995;1275;1016279;-70
2024/02/03 05:30:21;;;;;;;18.40;5.10;;;;;;;12.66;79.08;98650.58;68051;1275;1016484;-71
2024/02/03 05:33:24;;;;;;;18.10;5.20;;;;;;;12.81;77.95;98652.27;68053;1275;1018923;-70
2024/02/03 05:36:26;;;;;;;18.70;5.30;;;;;;;12.81;77.49;98654.23;68020;1275;1016298;-68
2024/02/03 05:39:29;;;;;;;19.30;5.10;;;;;;;12.87;76.81;98650.09;68006;1275;1016485;-70
2024/02/03 05:42:31;;;;;;;19.70;5.40;;;;;;;13.01;75.74;98645.93;68035;1275;1016820;-70
2024/02/03 05:45:34;;;;;;;15.50;4.60;;;;;;;13.08;74.73;98646.44;65450;1275;6385508;-71
2024/02/03 05:48:36;;;;;;;20.10;4.70;;;;;;;13.08;74.33;98658.07;67988;1275;1016515;-70
2024/02/03 05:51:39;;;;;;;14.30;4.50;;;;;;;13.07;74.63;98660.24;67983;1275;1016405;-69
2024/02/03 05:54:41;;;;;;;19.50;4.90;;;;;;;13.04;74.53;98655.92;68049;1275;1016259;-70
2024/02/03 05:57:44;;;;;;;19.40;5.20;;;;;;;13.17;73.75;98651.77;68054;1275;1018588;-70
2024/02/03 06:00:46;;;;;;;16.90;4.90;;;;;;;13.16;73.87;98654.11;68003;1275;1016684;-71
2024/02/03 06:03:48;;;;;;;18.10;5.30;;;;;;;12.95;75.24;98669.00;68007;1275;1016386;-71
2024/02/03 06:06:51;;;;;;;18.70;5.00;;;;;;;13.06;74.92;98678.58;68062;1275;1018746;-70
2024/02/03 06:09:54;;;;;;;16.10;4.60;;;;;;;13.04;75.15;98679.39;68029;1275;1016326;-70
2024/02/03 06:12:56;;;;;;;18.20;4.90;;;;;;;13.19;73.91;98682.17;67999;1275;1016369;-70
2024/02/03 06:15:58;;;;;;;15.40;4.30;;;;;;;13.15;74.02;98688.27;68001;1275;1016464;-70
2024/02/03 06:19:01;;;;;;;15.80;4.20;;;;;;;13.07;74.18;98690.05;68032;1275;1016315;-70
2024/02/03 06:22:04;;;;;;;16.00;4.20;;;;;;;13.02;74.91;98689.86;68061;1275;1016398;-70
2024/02/03 06:25:06;;;;;;;13.90;3.80;;;;;;;13.04;75.77;98694.87;68021;1275;1016307;-70
2024/02/03 06:28:11;;;;;;;13.50;4.00;;;;;;;12.93;77.44;98700.05;67984;1275;1016377;-70
2024/02/03 06:31:13;;;;;;;14.20;4.40;;;;;;;12.95;77.97;98693.21;68043;1274;1016440;-71
2024/02/03 06:34:16;;;;;;;17.30;4.60;;;;;;;12.96;77.76;98695.95;68066;1275;1016625;-71
2024/02/03 06:37:18;;;;;;;15.80;4.10;;;;;;;13.00;77.51;98693.77;67982;1274;1016259;-70
2024/02/03 06:40:21;;;;;;;17.60;4.50;;;;;;;13.02;77.08;98695.21;67995;1274;1016398;-70
2024/02/03 06:43:23;;;;;;;13.50;4.10;;;;;;;13.03;77.09;98688.11;68091;1275;1016311;-70
2024/02/03 06:46:26;;;;;;;15.50;4.30;;;;;;;13.00;77.72;98683.41;68065;1275;1018722;-71
2024/02/03 06:49:29;;;;;;;16.30;4.60;;;;;;;12.97;78.46;98692.05;67996;1275;1016350;-70
2024/02/03 06:52:31;;;;;;;19.80;4.90;;;;;;;12.84;79.58;98681.40;68069;1275;1016258;-70
2024/02/03 06:55:34;;;;;;;17.80;4.30;;;;;;;12.78;80.84;98678.64;68039;1275;1016101;-70
2024/02/03 06:58:36;;;;;;;15.10;4.40;;;;;;;13.06;79.90;98672.06;68023;1275;1018717;-70
2024/02/03 07:01:39;;;;;;;16.20;4.40;;;;;;;13.12;78.80;98688.14;68009;1275;1019411;-70
2024/02/03 07:04:41;;;;;;;16.40;5.10;;;;;;;13.11;79.02;98699.23;68028;1274;1016149;-70
2024/02/03 07:07:44;;;;;;;17.70;5.10;;;;;;;13.13;79.73;98685.59;68068;1275;1016118;-70
2024/02/03 07:10:46;;;;;;;19.40;5.10;;;;;;;13.32;78.26;98682.27;68016;1275;1016501;-70
2024/02/03 07:13:49;;;;;;;12.50;3.80;;;;;;;13.26;78.67;98695.69;67998;1275;1015907;-70
2024/02/03 07:16:51;;;;;;;16.80;4.80;;;;;;;13.22;79.27;98694.40;68057;1275;1018093;-70
2024/02/03 07:19:54;;;;;;;16.00;4.70;;;;;;;13.18;79.69;98692.44;68055;1275;1016505;-69
2024/02/03 07:22:56;;;;;;;13.90;4.20;;;;;;;13.24;79.29;98687.24;68011;1274;1017955;-70
2024/02/03 07:25:59;;;;;;;16.60;4.40;;;;;;;13.28;78.74;98697.30;67994;1275;1016337;-70
2024/02/03 07:29:01;;;;;;;17.70;4.80;;;;;;;13.36;78.31;98692.67;68019;1275;1016289;-71
2024/02/03 07:32:04;;;;;;;16.90;4.30;;;;;;;13.52;77.03;98692.21;68025;1275;1018574;-71
2024/02/03 07:35:06;;;;;;;15.20;4.40;;;;;;;13.57;76.32;98703.09;68037;1275;1016101;-71
2024/02/03 07:38:09;;;;;;;14.00;4.20;;;;;;;13.55;75.75;98695.14;68034;1275;1016723;-71
2024/02/03 07:41:14;;;;;;;15.70;4.20;;;;;;;13.49;76.38;98696.15;68063;1274;1017598;-71
2024/02/03 07:44:16;;;;;;;15.80;4.30;;;;;;;13.66;75.09;98704.84;68013;1252;1016376;-70
2024/02/03 07:47:19;;;;;;;18.50;4.40;;;;;;;13.62;74.98;98711.15;68022;1274;1016405;-70
2024/02/03 07:50:22;;;;;;;13.50;4.30;;;;;;;13.47;76.91;98710.14;68055;1275;1015783;-70
2024/02/03 07:53:25;;;;;;;16.80;4.90;;;;;;;13.67;75.55;98701.78;67985;1274;1016104;-70
2024/02/03 07:56:27;;;;;;;14.90;4.80;;;;;;;13.72;74.89;98708.44;67960;1275;1016459;-70
2024/02/03 07:59:30;;;;;;;16.90;4.50;;;;;;;13.60;76.14;98721.34;68024;1275;1015970;-70
2024/02/03 08:02:32;;;;;;;14.00;4.30;;;;;;;13.67;75.97;98716.25;67928;1274;1015944;-70
2024/02/03 08:05:35;;;;;;;13.50;4.00;;;;;;;13.56;77.73;98706.69;67987;1275;1016159;-70
2024/02/03 08:08:37;;;;;;;16.60;4.30;;;;;;;13.56;77.96;98690.32;67980;1275;1016474;-69
2024/02/03 08:11:40;;;;;;;15.30;4.10;;;;;;;13.45;79.64;98694.28;68010;1275;1016082;-70
2024/02/03 08:14:42;;;;;;;12.30;4.10;;;;;;;13.30;81.81;98702.60;68029;1275;1016624;-70
2024/02/03 08:17:45;;;;;;;16.00;4.70;;;;;;;13.24;83.45;98698.33;68010;1274;1016480;-69
2024/02/03 08:20:48;;;;;;;18.10;5.30;;;;;;;13.31;83.21;98700.04;68003;1275;1016761;-70
2024/02/03 08:23:50;;;;;;;14.80;4.10;;;;;;;13.30;83.56;98696.27;68058;1274;1016468;-70
2024/02/03 08:26:53;;;;;;;15.70;4.60;;;;;;;13.25;84.43;98704.94;68017;1274;1019569;-71
2024/02/03 08:29:55;;;;;;;17.20;4.90;;;;;;;13.39;83.75;98699.32;67995;1274;1016428;-71
2024/02/03 08:32:58;;;;;;;17.20;4.80;;;;;;;13.55;82.26;98689.75;67998;1274;1017017;-67
2024/02/03 08:36:00;;;;;;;16.70;5.20;;;;;;;13.47;82.32;98686.98;68030;1275;1016172;-71
2024/02/03 08:39:04;;;;;;;21.00;5.50;;;;;;;13.53;82.13;98684.38;67997;1274;1016235;-69
2024/02/03 08:42:07;;;;;;;17.40;4.90;;;;;;;13.46;82.43;98687.06;68039;1275;1016066;-70
2024/02/03 08:45:09;;;;;;;17.60;5.50;;;;;;;13.61;81.11;98682.41;68062;1274;1016181;-70
2024/02/03 08:48:12;;;;;;;19.30;5.80;;;;;;;13.54;81.57;98682.27;67999;1275;1015981;-70
2024/02/03 08:51:14;;;;;;;17.70;5.70;;;;;;;13.52;81.84;98692.06;67980;1275;1016219;-70
2024/02/03 08:54:17;;;;;;;19.20;5.40;;;;;;;13.60;81.25;98695.85;68011;1275;1016278;-70
2024/02/03 08:57:20;;;;;;;18.90;5.90;;;;;;;13.55;81.51;98715.77;68043;1275;1016704;-69
2024/02/03 09:00:22;;;;;;;20.00;6.10;;;;;;;13.62;81.12;98693.89;68027;1275;1016302;-71
2024/02/03 09:03:25;;;;;;;19.10;5.60;;;;;;;13.57;81.67;98700.08;68045;1275;1016353;-70
2024/02/03 09:06:28;;;;;;;19.90;6.40;;;;;;;13.61;82.16;98700.48;68050;1275;1016462;-68
2024/02/03 09:09:31;;;;;;;18.20;5.70;;;;;;;13.73;80.97;98701.16;67976;1275;1016462;-70
2024/02/03 09:12:33;;;;;;;19.10;5.80;;;;;;;13.81;80.82;98710.98;68045;1275;1015723;-70
2024/02/03 09:15:36;;;;;;;19.90;6.20;;;;;;;13.72;81.85;98700.90;68047;1275;1016448;-70
2024/02/03 09:18:38;;;;;;;20.00;6.80;;;;;;;13.75;81.86;98705.80;68017;1275;1016296;-69
2024/02/03 09:21:41;;;;;;;19.90;5.90;;;;;;;13.86;81.36;98693.19;67986;1275;1016221;-70
2024/02/03 09:24:43;;;;;;;22.20;6.50;;;;;;;13.68;82.39;98707.69;68056;1275;1016389;-69
2024/02/03 09:27:46;;;;;;;22.40;6.20;;;;;;;13.75;82.75;98706.69;68050;1275;1016433;-70
2024/02/03 09:30:48;;;;;;;17.90;5.40;;;;;;;13.67;84.00;98715.34;67993;1275;1015668;-69
2024/02/03 09:33:51;;;;;;;19.90;5.90;;;;;;;13.79;83.60;98712.16;67981;1275;1018313;-70
2024/02/03 09:36:53;;;;;;;20.70;5.80;;;;;;;13.99;82.92;98715.20;68020;1275;1016374;-70
2024/02/03 09:39:56;;;;;;;19.20;5.90;;;;;;;13.96;82.81;98722.64;68039;1275;1016447;-70
2024/02/03 09:42:59;;;;;;;20.40;6.40;;;;;;;14.06;83.23;98710.77;67992;1275;1016216;-69
2024/02/03 09:46:01;;;;;;;21.40;5.70;;;;;;;14.04;83.69;98714.65;68059;1275;1016339;-70
2024/02/03 09:49:04;;;;;;;20.40;5.60;;;;;;;14.03;83.65;98729.14;68075;1275;1016180;-62
2024/02/03 09:52:06;;;;;;;18.00;5.60;;;;;;;14.06;83.61;98717.50;68024;1275;1018413;-69
2024/02/03 09:55:09;;;;;;;18.80;5.20;;;;;;;14.26;82.64;98712.09;67998;1275;1016495;-67
2024/02/03 09:58:11;;;;;;;18.70;5.20;;;;;;;14.24;82.82;98716.26;68072;1275;1015966;-70
2024/02/03 10:01:14;;;;;;;17.30;4.90;;;;;;;14.17;83.24;98718.25;68039;1275;1016471;-70
2024/02/03 10:04:16;;;;;;;18.10;5.60;;;;;;;14.13;84.73;98716.38;68033;1274;1016322;-71
2024/02/03 10:07:19;;;;;;;16.50;4.90;;;;;;;14.06;85.56;98706.11;68000;1274;1016465;-70
2024/02/03 10:10:21;;;;;;;15.50;4.30;;;;;;;14.12;85.18;98708.91;68064;1274;1016215;-70
2024/02/03 10:13:24;;;;;;;15.00;4.50;;;;;;;14.08;85.47;98709.42;68051;1274;1017851;-69
2024/02/03 10:16:27;;;;;;;16.50;4.40;;;;;;;14.00;86.67;98712.81;68017;1274;1018753;-70
2024/02/03 10:19:30;;;;;;;14.40;4.50;;;;;;;14.00;87.95;98707.55;68089;1274;1016417;-70
2024/02/03 10:22:32;;;;;;;14.80;3.80;;;;;;;13.98;88.55;98715.45;68027;1274;1016126;-64
2024/02/03 10:25:35;;;;;;;14.80;4.50;;;;;;;13.92;89.45;98709.61;68016;1274;1016499;-70
2024/02/03 10:28:38;;;;;;;15.20;4.20;;;;;;;13.98;89.60;98703.68;68074;1274;1016824;-69
2024/02/03 10:31:40;;;;;;;15.70;4.40;;;;;;;14.08;89.75;98704.48;68052;1274;1016245;-69
2024/02/03 10:34:43;;;;;;;13.10;3.80;;;;;;;14.22;88.55;98704.48;67984;1274;1016156;-70
2024/02/03 10:37:45;;;;;;;12.40;4.10;;;;;;;14.27;87.70;98701.13;67980;1274;1018085;-70
2024/02/03 10:40:48;;;;;;;13.00;4.00;;;;;;;14.29;87.94;98696.55;68057;1274;1016500;-70
2024/02/03 10:43:50;;;;;;;;;;;;;;;14.37;87.22;98692.70;68043;1274;1015806;-70
2024/02/03 10:46:53;;;;;;;14.00;4.40;;;;;;;14.50;86.74;98685.38;68004;1274;1016285;-70
2024/02/03 10:49:56;;;;;;;13.40;3.80;;;;;;;14.56;85.92;98677.52;68071;1274;1020094;-67
2024/02/03 10:52:59;;;;;;;;;;;;;;;14.58;85.04;98691.34;68047;1274;1016383;-70
2024/02/03 10:56:01;;;;;;;14.70;4.60;;;;;;;14.39;87.12;98681.70;68011;1274;1016485;-70
2024/02/03 10:59:05;;;;;;;16.20;4.40;;;;;;;14.39;88.62;98682.42;68056;1274;1018744;-70
2024/02/03 11:02:08;;;;;;;14.10;4.00;;;;;;;14.34;87.47;98703.02;68033;1274;1016285;-70
2024/02/03 11:05:10;;;;;;;16.10;4.40;;;;;;;14.44;86.47;98683.05;68062;1274;1016815;-69
2024/02/03 11:08:13;;;;;;;10.00;3.40;;;;;;;14.55;85.22;98672.89;67995;1274;1016417;-70
2024/02/03 11:11:16;;;;;;;;;;;;;;;14.57;83.37;98679.04;68007;1274;1016447;-67
2024/02/03 11:14:18;;;;;;;11.20;3.60;;;;;;;14.60;83.28;98669.64;68012;1275;1016313;-70
2024/02/03 11:17:21;;;;;;;10.80;3.60;;;;;;;14.65;82.10;98676.98;68036;1275;1016353;-70
2024/02/03 11:20:23;;;;;;;12.10;3.70;;;;;;;14.72;81.19;98669.64;67991;1275;1016138;-70
2024/02/03 11:23:26;;;;;;;11.60;3.60;;;;;;;14.88;80.04;98669.39;67999;1275;1016063;-70
2024/02/03 11:26:29;;;;;;;11.50;3.80;;;;;;;14.77;79.70;98673.23;68056;1275;1016500;-70
2024/02/03 11:29:32;;;;;;;12.20;3.70;;;;;;;14.65;80.70;98672.27;68019;1275;1016734;-70
2024/02/03 11:32:34;;;;;;;14.10;3.90;;;;;;;14.62;80.24;98677.82;68053;1274;1015778;-70
2024/02/03 11:35:37;;;;;;;15.40;4.20;;;;;;;14.73;79.46;98678.89;68023;1275;1016243;-70
2024/02/03 11:38:40;;;;;;;15.90;4.40;;;;;;;14.83;78.35;98678.73;68016;1275;1016200;-69
2024/02/03 11:41:42;;;;;;;9.90;3.40;;;;;;;14.90;76.42;98679.45;68036;1274;1016432;-69
2024/02/03 11:44:45;;;;;;;13.70;4.00;;;;;;;14.93;74.99;98676.89;68005;1274;1016107;-70
2024/02/03 11:47:47;;;;;;;12.80;3.80;;;;;;;15.04;74.02;98678.79;67941;1274;1016434;-69
2024/02/03 11:50:50;;;;;;;11.00;3.30;;;;;;;14.99;74.50;98673.45;67987;1275;1016465;-70
2024/02/03 11:53:54;;;;;;;10.20;3.30;;;;;;;14.87;74.99;98693.38;67991;1275;1016456;-70
2024/02/03 11:56:57;;;;;;;8.00;2.80;;;;;;;14.91;74.63;98686.88;67973;1274;1016316;-69
2024/02/03 12:00:00;;;;;;;12.70;3.20;;;;;;;14.85;74.58;98690.58;68054;1275;1016295;-68
2024/02/03 12:03:04;;;;;;;8.80;2.90;;;;;;;15.00;73.49;98692.02;68000;1275;1016922;-67
2024/02/03 12:06:07;;;;;;;;;;;;;;;15.24;72.10;98686.83;68017;1274;1016519;-67
2024/02/03 12:09:10;;;;;;;7.00;2.50;;;;;;;15.21;70.09;98696.99;68001;1275;1016828;-68
2024/02/03 12:12:12;;;;;;;10.60;2.60;;;;;;;15.26;69.86;98674.73;68016;1274;1018677;-67
2024/02/03 12:15:15;;;;;;;5.20;1.90;;;;;;;15.24;69.73;98693.42;68052;1275;1016361;-66
2024/02/03 12:18:18;;;;;;;7.50;2.30;;;;;;;15.35;69.10;98665.88;68009;1275;1016501;-67
2024/02/03 12:21:20;;;;;;;5.60;2.00;;;;;;;15.29;69.72;98677.33;67996;1275;1016114;-67
2024/02/03 12:24:23;;;;;;;5.70;1.70;;;;;;;15.44;68.76;98678.52;68038;1275;1016140;-67
2024/02/03 12:27:25;;;;;;;10.40;2.30;;;;;;;15.42;68.97;98669.54;68052;1274;1016400;-66
2024/02/03 12:30:35;;;;;;;8.40;2.10;;;;;;;15.50;68.49;98685.45;68020;1275;1016141;-64
2024/02/03 12:33:37;;;;;;;9.20;2.10;;;;;;;15.59;68.04;98668.98;68058;1275;1016204;-67
2024/02/03 12:36:40;;;;;;;8.30;2.40;;;;;;;15.51;68.43;98679.02;68013;1274;1016310;-67
2024/02/03 12:39:42;;;;;;;;;;;;;;;15.37;71.05;98672.23;68019;1275;1019483;-68
2024/02/03 12:42:45;;;;;;;7.60;2.40;;;;;;;15.29;72.14;98663.77;68054;1275;1016391;-67
2024/02/03 12:45:48;;;;;;;;;;;;;;;15.34;71.63;98660.19;68047;1274;1016168;-67
2024/02/03 12:48:52;;;;;;;;;;;;;;;15.50;71.58;98651.64;67994;1275;1016462;-65
2024/02/03 12:51:54;;;;;;;9.40;2.30;;;;;;;15.45;70.68;98661.56;68007;1274;1016527;-67
2024/02/03 12:54:57;;;;;;;9.60;2.60;;;;;;;15.41;69.85;98670.81;67997;1275;1016282;-67
2024/02/03 12:57:59;;;;;;;4.00;1.80;;;;;;;15.61;69.01;98671.64;68021;1275;1016346;-67
2024/02/03 13:01:03;;;;;;;11.00;2.90;;;;;;;15.86;67.32;98670.67;68043;1275;1016363;-67
2024/02/03 13:04:05;;;;;;;10.10;2.20;;;;;;;15.87;66.92;98664.59;68040;1275;1016345;-67
2024/02/03 13:07:08;;;;;;;6.70;1.90;;;;;;;15.61;67.60;98676.20;68025;1275;1016447;-66
2024/02/03 13:10:10;;;;;;;6.40;2.20;;;;;;;15.49;68.81;98686.41;67988;1274;1016024;-66
2024/02/03 13:13:13;;;;;;;5.10;1.80;;;;;;;15.47;70.56;98685.53;67968;1275;1016370;-67
2024/02/03 13:16:16;;;;;;;6.60;2.10;;;;;;;15.64;68.88;98677.61;68050;1275;1017702;-66
2024/02/03 13:19:18;;;;;;;;;;;;;;;15.71;67.46;98669.37;68060;1275;1016048;-67
2024/02/03 13:22:20;;;;;;;11.70;2.10;;;;;;;15.62;68.42;98685.90;67983;1275;1016211;-64
2024/02/03 13:25:23;;;;;;;16.20;3.40;;;;;;;15.37;72.94;98667.64;68003;1275;1016455;-68
2024/02/03 13:28:25;;;;;;;11.40;2.50;;;;;;;15.19;75.16;98689.77;68036;1275;1016082;-67
2024/02/03 13:31:28;;;;;;;6.70;2.00;;;;;;;15.24;75.44;98682.66;67998;1275;1018390;-67
2024/02/03 13:34:30;;;;;;;7.70;2.20;;;;;;;15.48;73.98;98683.33;67981;1275;1016052;-68
2024/02/03 13:37:34;;;;;;;8.30;2.00;;;;;;;15.60;73.77;98686.32;67993;1275;1016259;-67
2024/02/03 13:40:37;;;;;;;7.10;2.20;;;;;;;15.44;73.81;98685.23;68035;1275;1016283;-67
2024/02/03 13:43:40;;;;;;;7.50;1.90;;;;;;;15.49;74.01;98679.90;68046;1275;1016246;-67
2024/02/03 13:46:42;;;;;;;9.30;2.00;;;;;;;15.46;74.36;98700.96;68027;1251;1016278;-67
2024/02/03 13:49:45;;;;;;;5.00;1.80;;;;;;;15.61;72.77;98707.79;68040;1275;1016624;-67
2024/02/03 13:52:48;;;;;;;12.80;2.80;;;;;;;15.39;73.52;98714.14;68058;1275;1018145;-65